2015 Haywood Ski Nats Day 2 Int Free AB | Zone4.ca



2015 Haywood Ski Nats Day 2 Int Free AB

Date: Mar 15, 2015
Official  Results
Location: Lappe Nordic Ski Centre
Host Club: Lakehead Superior Nordic Association

Jury
Technical Delegate:  Shawn Sinclair 
Assistant Tech. Delegate:  Pierre Millette 
Race Director:  Dave Dyer 
Chief of Competition:  Grant Hall 
Obs. Time: 10:00
Wind Vel: 10-15 km/hr Wind Dir: SE
Air Temp: -3 Snow Temp: -8
Weather: overcast Snow Cond: mach grmd gran

Open Women 5 km. Free   Course Info:  MC: 35m   HD: 36m   TC: 180m 
PL Bib Name SubCat Rnk CCC YOB Club Team Div Time Diff
1 276 Dahria Beatty Sr W 1/41 22610 1994 Whitehorse AWCA-NST YK 0:13:23.4  
2 270 Perianne Jones Sr W 2/41 12918 1985 Nakkertok-ON National Ski Team ON 0:13:27.1 +3.7
3 271 Andrea Dupont Sr W 3/41 5573 1980 RMR   AB 0:13:32.5 +9.1
4 281 Heidi Widmer Sr W 4/41 14175 1991 Foothills Nordic AWCA-NST AB 0:13:41.0 +17.6
5 282 Olivia Bouffard-Nesbitt Sr W 5/41 19676 1992 Fondeurs-Laurentides RMR QC 0:13:51.5 +28.1
6 272 Cendrine Browne Sr W 6/41 24461 1993 Fondeurs-Laurentides CNEPH-NST QC 0:13:51.7 +28.3
7 275 Brittany Webster Sr W 7/41 14219 1987 Highland Trailblazer AWCA ON 0:13:55.3 +31.9
8 269 Maya MacIsaac-Jones Jr W 1/30 20511 1995 RMR National Jr. Team AB 0:14:01.5 +38.1
9 252 Katherine Stewart-Jones Jr W 2/30 23772 1995 Nakkertok Nordique   QC 0:14:10.2 +46.8
10 257 Alannah Maclean Sr W 8/41 19646 1993 Walden Nordic NDC-TBay ON 0:14:10.4 +47.0
11 255 Annika Hicks Sr W 9/41 18875 1991 Canmore Nordic   AB 0:14:15.2 +51.8
12 248 Jennifer Jackson Jr W 3/30 21582 1995 Team Hardwood NDC-TBay ON 0:14:16.7 +53.3
13 265 Alysson Marshall Sr W 10/41 13482 1988 Larch Hills Nordic AWCA-NST BC 0:14:16.9 +53.5
14 258 Annah Hanthorn Jr W 4/30 14632 1995 Whitehorse YT Ski Team YK 0:14:18.0 +54.6
15 280 Frédérique Vézina Sr W 11/41 19234 1994 M.S.A. CNEPH QC 0:14:26.3 +1:02.9
16 259 Andrea Lee Sr W 12/41 13764 1990 Strathcona Nordic   BC 0:14:28.2 +1:04.8
17 284 Sadie White Jr W 5/30 23767 1996 Big Thunder Nordic NDC-TBay/Lakehead U ON 0:14:30.7 +1:07.3
18 274 Brandy Stewart Sr W 13/41 13899 1977 Nakkertok Nordique   QC 0:14:38.6 +1:15.2
19 250 Erin Tribe Sr W 14/41 13652 1989 Team Hardwood Lakehead U ON 0:14:45.2 +1:21.8
20 264 Anne-Marie Comeau Jr W 6/30 23595 1996 M.S.A. CNEPH QC 0:14:45.7 +1:22.3
21 249 Ember Large Jr W 7/30 23731 1995 RMR   AB 0:14:49.1 +1:25.7
22 266 Kendra Murray Sr W 15/41 22984 1993 Whitehorse YT Ski Team YK 0:14:56.3 +1:32.9
23 213 Megan McTavish Sr W 16/41 4881 1977 XC Ottawa XC Ottawa ON 0:14:56.7 +1:33.3
24 246 Sophie Carrier-Laforte Jr W 8/30 24472 1995 Skinouk QCST QC 0:14:57.9 +1:34.5
25 241 Shelby Dickey Sr W 17/41 21473 1994 Highland Trailblazer Nipissing U ON 0:15:11.8 +1:48.4
26 283 Ingrid Hagberg Sr W 18/41 18900 1991 XC Ottawa XC Ottawa ON 0:15:13.8 +1:50.4
27 91 Rebecca Puiras Sr W 19/41 5090 1978 Lappe Nordic   ON 0:15:15.3 +1:51.9
28 279 Kajsa Heyes Sr W 20/41 14562 1992 Hollyburn Nipissing U BC 0:15:15.8 +1:52.4
29 268 Andrée-Anne Théberge Jr W 9/30 23610 1995 Skibec QC Ski Team QC 0:15:19.0 +1:55.6
30 223 Gabrielle Lemire Sr W 21/41 21444 1994 Rouge et Or U Laval QC 0:15:19.4 +1:56.0
31 245 Sheila Kealey Sr W 22/41 3485 1964 XC Ottawa XC Ottawa ON 0:15:24.1 +2:00.7
32 262 Madison Fraser Jr W 10/30 21418 1996 Team Hardwood ON Ski Team ON 0:15:25.8 +2:02.4
33 232 Emily McIlroy Jr W 11/30 25697 1996 Camrose Ski Club U of Alberta-Augustana AB 0:15:29.4 +2:06.0
34 222 Delphine Duvernay Tardif Jr W 12/30 25602 1996 Montériski   QC 0:15:35.1 +2:11.7
35 210 Christel Pichard-Jolicoeur Sr W 23/41 22602 1994 Rouge et Or U Laval QC 0:15:36.1 +2:12.7
36 236 Kyla Vanderzwet Sr W 24/41 19694 1989 XC Ottawa XC Ottawa ON 0:15:36.2 +2:12.8
37 206 Katherine Denis Jr W 13/30 25762 1996 Nakkertok-ON   ON 0:15:39.9 +2:16.5
38 212 Mia Serratore Jr W 14/30 23769 1996 Big Thunder Nordic   ON 0:15:42.1 +2:18.7
39 229 Bryana Van Leeuwen Sr W 25/41 25586 1994 Big Thunder Nordic Lakehead U ON 0:15:44.3 +2:20.9
40 243 Emma Camicioli Sr W 26/41 25732 1993 RMR RMR AB 0:15:50.9 +2:27.5
41 256 Isabella Howden Jr W 15/30 27493 1996 Team Hardwood   ON 0:15:53.9 +2:30.5
42 251 Adrienne Hynes Jr W 16/30 24509 1995 Whitehorse YT Ski Team YK 0:15:57.3 +2:33.9
43 101 Katherine Hall Sr W 27/41 13678 1989 Lappe Nordic   ON 0:15:59.3 +2:35.9
44 116 Daphne Haggarty Sr W 28/41 14363 1991 Big Thunder Nordic Lakehead U ON 0:16:00.4 +2:37.0
45 231 Holly Brown Jr W 17/30 28645 1995 Big Thunder Nordic Lakehead U/OST ON 0:16:03.9 +2:40.5
46 196 Isabelle Maclean Jr W 18/30 20510 1995 Walden Nordic Carleton U ON 0:16:07.7 +2:44.3
47 208 Camille Hamm Jr W 19/30 23768 1996 Big Thunder Nordic Lakehead U ON 0:16:09.9 +2:46.5
48 97 Kirsty Bock Sr W 29/41 21569 1994 UBC   BC 0:16:12.4 +2:49.0
49 214 Dafné Théroux Izquierdo Jr W 20/30 25771 1996 Fondeurs-Laurentides   QC 0:16:23.4 +3:00.0
50 207 Camille Burbidge Izquierdo Sr W 30/41 19563 1993 Rouge et Or U Laval QC 0:16:30.9 +3:07.5
51 143 Fiona McKenna Sr W 31/41 6569 1963 Lappe Nordic   ON 0:16:38.1 +3:14.7
52 138 Emily Jones Jr W 21/30 28194 1996 Highland Trailblazer Carleton U ON 0:16:39.9 +3:16.5
53 244 Marilie Samson Sr W 32/41 19550 1993 Rouge et Or U Laval QC 0:16:53.7 +3:30.3
54 95 Marilyn Ailey Sr W 33/41 34876 1974 Lappe Nordic   ON 0:16:55.2 +3:31.8
55 156 Ruth Oppliger Sr W 34/41 9999 1993 Michigan Tech U     0:16:56.8 +3:33.4
56 220 Alexandra Slobodian Jr W 22/30 23717 1995 Nakkertok-ON OST ON 0:16:57.0 +3:33.6
57 125 Lauren Dyck Sr W 35/41 29306 1994 Saskatoon Nordic SK Ski Team SK 0:17:02.2 +3:38.8
58 172 Logan Hong Jr W 23/30 23715 1996 XC Ottawa Carleton U ON 0:17:10.0 +3:46.6
59 190 Évelyne Bellerose Sr W 36/41 19618 1993 Rouge et Or U Laval QC 0:17:10.5 +3:47.1
60 150 Alexe Tremblay Sr W 37/41 21032 1994 Rouge et Or U Laval QC 0:17:18.4 +3:55.0
61 181 Kelly Henry Sr W 38/41 13366 1983 Lappe Nordic   ON 0:17:19.0 +3:55.6
62 151 Carina Eberhardt Sr W 39/41 24634 1991 SV Freudenstadt Nipissing U   0:17:20.8 +3:57.4
63 105 Nicole Dumonski Jr W 24/30 23626 1995 Big Thunder Nordic Lakehead U ON 0:17:21.8 +3:58.4
64 153 Freya Hik Jr W 25/30 33376 1995 U of Alberta U of Alberta AB 0:17:33.7 +4:10.3
65 157 Kynyn Doughty Jr W 26/30 26924 1996 Highland Trailblazer   ON 0:17:39.4 +4:16.0
66 160 Jessica Metuzals Sr W 40/41 31837 1991 Nakkertok-ON   ON 0:18:00.0 +4:36.6
67 148 Kaitlyn McMahon Sr W 41/41 19587 1990 XC Ottawa   ON 0:18:07.8 +4:44.4
68 103 Katie Lockhart Jr W 27/30 27415 1996 Kenora-MB   MB 0:18:22.2 +4:58.8
69 118 Vanessa Bouffard-Thibault Jr W 28/30 33396 1995 Rouge et Or U Laval QC 0:19:17.4 +5:54.0
70 109 Hannah Xavier Jr W 29/30 34884 1995 UBC   BC 0:19:39.3 +6:15.9
71 203 Marianne St-Louis-Morneau Jr W 30/30 25613 1996 Skibec   QC 0:24:01.9 +10:38.5


Results are posted through an automated system by licenced clubs. For inquires about result corrections please contact the race organizer.

Copyright 2021 - Zone4 Systems zone4.ca       Privacy Policy     Delivery/Refund Policy     Terms of Service    Contact Zone4